Time;durP1;ratioP1;P1;durP2;ratioP2;P2;SDS_P1;SDS_P2;PMS_P1;PMS_P2;Temp;Humidity;BMP_temperature;BMP_pressure;BME280_temperature;BME280_humidity;BME280_pressure;Samples;Min_cycle;Max_cycle;Signal;HPM_P1;HPM_P2
2023/04/15 00:01:19;;;;;;;1.67;1.17;;;7.30;99.90;;;;;;5115286;28;20595;-80
2023/04/15 00:03:46;;;;;;;1.40;1.30;;;7.30;99.90;;;;;;5115356;28;20177;-80
2023/04/15 00:06:12;;;;;;;1.00;1.00;;;7.30;99.90;;;;;;5114214;28;20670;-80
2023/04/15 00:08:38;;;;;;;1.30;1.30;;;7.30;99.90;;;;;;5114837;28;20167;-76
2023/04/15 00:11:04;;;;;;;1.10;1.10;;;7.30;99.90;;;;;;5115119;28;20638;-78
2023/04/15 00:13:32;;;;;;;1.20;1.20;;;7.40;99.90;;;;;;5096917;28;20539;-79
2023/04/15 00:15:58;;;;;;;1.40;1.40;;;7.30;99.90;;;;;;5114783;28;20581;-78
2023/04/15 00:18:24;;;;;;;1.40;1.30;;;7.40;99.90;;;;;;5114752;28;20173;-80
2023/04/15 00:20:53;;;;;;;1.30;1.30;;;7.40;99.90;;;;;;5114803;28;20229;-76
2023/04/15 00:23:18;;;;;;;1.30;1.30;;;7.30;99.90;;;;;;5096642;28;20538;-79
2023/04/15 00:25:44;;;;;;;1.10;1.10;;;7.30;99.90;;;;;;5115145;28;20212;-75
2023/04/15 00:28:10;;;;;;;1.23;1.23;;;7.30;99.90;;;;;;5121071;28;20179;-80
2023/04/15 00:30:36;;;;;;;1.27;1.27;;;7.40;99.90;;;;;;5114888;28;20564;-76
2023/04/15 00:33:02;;;;;;;1.17;1.10;;;7.40;99.90;;;;;;5096525;28;20255;-77
2023/04/15 00:35:28;;;;;;;1.00;1.00;;;7.40;99.90;;;;;;5114584;28;20180;-78
2023/04/15 00:37:54;;;;;;;1.20;1.20;;;7.30;99.90;;;;;;5096513;28;20183;-79
2023/04/15 00:40:20;;;;;;;1.40;1.40;;;7.40;99.90;;;;;;5096116;28;20248;-78
2023/04/15 00:42:46;;;;;;;1.30;1.30;;;7.40;99.90;;;;;;5114602;28;20201;-79
2023/04/15 00:45:12;;;;;;;1.30;1.20;;;7.30;99.90;;;;;;5096032;28;20712;-79
2023/04/15 00:47:41;;;;;;;1.07;1.07;;;7.30;99.90;;;;;;5114232;28;20193;-79
2023/04/15 00:50:08;;;;;;;1.10;1.10;;;7.40;99.90;;;;;;5095900;28;20180;-79
2023/04/15 00:52:35;;;;;;;1.30;1.30;;;7.40;99.90;;;;;;5114337;28;20186;-78
2023/04/15 00:55:04;;;;;;;1.17;1.17;;;7.40;99.90;;;;;;5114199;28;20674;-76
2023/04/15 00:57:30;;;;;;;1.10;1.10;;;7.40;99.90;;;;;;5114202;28;20176;-79
2023/04/15 00:59:57;;;;;;;1.20;1.20;;;7.30;99.90;;;;;;5114057;28;20167;-79
2023/04/15 01:02:23;;;;;;;1.10;1.10;;;7.30;99.90;;;;;;5113999;28;20184;-78
2023/04/15 01:04:49;;;;;;;1.10;1.10;;;7.40;99.90;;;;;;5113860;28;20204;-78
2023/04/15 01:07:15;;;;;;;1.37;1.27;;;7.40;99.90;;;;;;5113686;28;20662;-79
2023/04/15 01:09:42;;;;;;;1.00;1.00;;;7.40;99.90;;;;;;5114072;28;20273;-79
2023/04/15 01:12:10;;;;;;;1.10;1.10;;;7.40;99.90;;;;;;5115038;28;20178;-79
2023/04/15 01:14:36;;;;;;;1.10;1.10;;;7.40;99.90;;;;;;5114021;28;20183;-82
2023/04/15 01:17:02;;;;;;;1.47;1.40;;;7.30;99.90;;;;;;5094840;28;20223;-80
2023/04/15 01:19:28;;;;;;;1.10;1.10;;;7.30;99.90;;;;;;5112911;28;20211;-77
2023/04/15 01:21:54;;;;;;;1.57;1.47;;;7.30;99.90;;;;;;5115714;28;20184;-75
2023/04/15 01:24:20;;;;;;;1.83;1.43;;;7.30;99.90;;;;;;5114772;28;20169;-80
2023/04/15 01:26:47;;;;;;;1.40;1.40;;;7.30;99.90;;;;;;5113644;28;20659;-82
2023/04/15 01:29:14;;;;;;;1.80;1.70;;;7.30;99.90;;;;;;5113077;28;20168;-76
2023/04/15 01:31:40;;;;;;;1.40;1.40;;;7.30;99.90;;;;;;5113458;28;20658;-81
2023/04/15 01:34:05;;;;;;;1.70;1.60;;;7.30;99.90;;;;;;5113222;28;20166;-78
2023/04/15 01:36:31;;;;;;;1.10;1.10;;;7.30;99.90;;;;;;5095081;28;20174;-78
2023/04/15 01:39:00;;;;;;;1.50;1.50;;;7.30;99.90;;;;;;5112775;28;20175;-81
2023/04/15 01:41:27;;;;;;;1.40;1.40;;;7.30;99.90;;;;;;5113073;28;20193;-78
2023/04/15 01:43:53;;;;;;;1.23;1.23;;;7.20;99.90;;;;;;5113185;28;20176;-79
2023/04/15 01:46:18;;;;;;;2.53;1.30;;;7.20;99.90;;;;;;5113099;28;20208;-80
2023/04/15 01:48:45;;;;;;;1.27;1.27;;;7.30;99.90;;;;;;5112608;28;20183;-76
2023/04/15 01:51:10;;;;;;;1.10;1.10;;;7.30;99.90;;;;;;5113452;28;20183;-81
2023/04/15 01:53:36;;;;;;;1.17;1.17;;;7.30;99.90;;;;;;5113060;28;20166;-79
2023/04/15 01:56:03;;;;;;;1.20;1.20;;;7.30;99.90;;;;;;5113097;28;20561;-80
2023/04/15 01:58:29;;;;;;;1.20;1.20;;;7.20;99.90;;;;;;5112680;28;20176;-82
2023/04/15 02:00:55;;;;;;;1.23;1.10;;;7.20;99.90;;;;;;5113202;28;20195;-81
2023/04/15 02:03:21;;;;;;;1.07;1.07;;;7.20;99.90;;;;;;5112908;28;20281;-83
2023/04/15 02:05:46;;;;;;;1.10;1.10;;;7.20;99.90;;;;;;5112601;28;20206;-82
2023/04/15 02:08:12;;;;;;;1.40;1.30;;;7.20;99.90;;;;;;5112714;28;20168;-80
2023/04/15 02:10:38;;;;;;;0.90;0.90;;;7.10;99.90;;;;;;5112577;28;20622;-79
2023/04/15 02:13:04;;;;;;;1.00;1.00;;;7.10;99.90;;;;;;5094483;28;20184;-79
2023/04/15 02:15:30;;;;;;;1.20;1.20;;;7.10;99.90;;;;;;5112598;28;20258;-81
2023/04/15 02:17:57;;;;;;;1.40;1.40;;;7.10;99.90;;;;;;5112671;28;20688;-80
2023/04/15 02:20:23;;;;;;;1.10;1.10;;;7.00;99.90;;;;;;5113401;28;20273;-77
2023/04/15 02:22:49;;;;;;;2.07;1.30;;;7.10;99.90;;;;;;5116507;28;20639;-78
2023/04/15 02:25:19;;;;;;;1.10;1.10;;;7.10;99.90;;;;;;5114759;28;20285;-82
2023/04/15 02:27:45;;;;;;;1.43;1.30;;;7.10;99.90;;;;;;5113027;28;20168;-81
2023/04/15 02:30:10;;;;;;;0.97;0.97;;;7.10;99.90;;;;;;5099716;28;20181;-77
2023/04/15 02:32:37;;;;;;;1.40;1.40;;;7.10;99.90;;;;;;5100892;28;20631;-83
2023/04/15 02:35:07;;;;;;;1.20;1.20;;;7.00;99.90;;;;;;5100959;28;20623;-79
2023/04/15 02:37:39;;;;;;;1.33;1.27;;;7.00;99.90;;;;;;5119485;28;20247;-77
2023/04/15 02:40:08;;;;;;;1.17;1.17;;;7.00;99.90;;;;;;5100560;28;20631;-79
2023/04/15 02:42:33;;;;;;;0.90;0.90;;;7.00;99.90;;;;;;5120118;28;20512;-78
2023/04/15 02:44:59;;;;;;;1.43;1.10;;;7.00;99.90;;;;;;5120963;28;20204;-77
2023/04/15 02:47:25;;;;;;;1.20;1.20;;;7.10;99.90;;;;;;5120359;28;20175;-83
2023/04/15 02:49:51;;;;;;;1.10;1.10;;;7.10;99.90;;;;;;5119133;28;20223;-79
2023/04/15 02:52:17;;;;;;;1.10;1.10;;;7.10;99.90;;;;;;5119315;28;20183;-81
2023/04/15 02:54:43;;;;;;;1.20;1.20;;;7.10;99.90;;;;;;5123813;28;20181;-76
2023/04/15 02:57:10;;;;;;;1.10;1.10;;;7.10;99.90;;;;;;5120391;28;20721;-79
2023/04/15 02:59:36;;;;;;;1.83;1.20;;;7.00;99.90;;;;;;5119581;28;20177;-81
2023/04/15 03:02:02;;;;;;;1.23;1.23;;;7.10;99.90;;;;;;5119398;28;20181;-82
2023/04/15 03:04:29;;;;;;;1.03;1.03;;;7.10;99.90;;;;;;5119312;28;20189;-82
2023/04/15 03:06:55;;;;;;;1.00;1.00;;;7.10;99.90;;;;;;5119204;28;20265;-77
2023/04/15 03:09:23;;;;;;;1.60;1.50;;;7.00;99.90;;;;;;5118530;28;20233;-81
2023/04/15 03:11:52;;;;;;;1.37;1.37;;;7.10;99.90;;;;;;5119040;28;20181;-83
2023/04/15 03:14:18;;;;;;;1.40;1.40;;;7.10;99.90;;;;;;5118962;28;20689;-81
2023/04/15 03:16:43;;;;;;;1.10;1.10;;;7.10;99.90;;;;;;5118845;28;20228;-79
2023/04/15 03:19:09;;;;;;;1.20;1.20;;;7.10;99.90;;;;;;5118846;28;20169;-81
2023/04/15 03:21:35;;;;;;;1.30;1.30;;;7.10;99.90;;;;;;5118859;28;20226;-79
2023/04/15 03:24:01;;;;;;;1.40;1.40;;;7.10;99.90;;;;;;5119020;28;20629;-80
2023/04/15 03:26:30;;;;;;;1.20;1.20;;;7.10;99.90;;;;;;5119077;28;20695;-80
2023/04/15 03:28:57;;;;;;;1.43;1.43;;;7.00;99.90;;;;;;5118745;28;20531;-81
2023/04/15 03:31:23;;;;;;;1.50;1.50;;;7.10;99.90;;;;;;5118552;28;20236;-77
2023/04/15 03:33:49;;;;;;;1.30;1.30;;;7.10;99.90;;;;;;5118674;28;20180;-79
2023/04/15 03:36:15;;;;;;;1.30;1.30;;;7.10;99.90;;;;;;5118898;28;20205;-76
2023/04/15 03:38:41;;;;;;;1.20;1.20;;;7.10;99.90;;;;;;5118633;28;20161;-75
2023/04/15 03:41:08;;;;;;;1.30;1.30;;;7.10;99.90;;;;;;5115702;28;20191;-77
2023/04/15 03:43:34;;;;;;;1.30;1.30;;;7.10;99.90;;;;;;5115612;28;20189;-76
2023/04/15 03:46:00;;;;;;;1.03;1.03;;;7.10;99.90;;;;;;5115354;28;20243;-75
2023/04/15 03:48:26;;;;;;;1.20;1.20;;;7.00;99.90;;;;;;5115351;28;20207;-77
2023/04/15 03:50:52;;;;;;;1.10;1.10;;;7.10;99.90;;;;;;5114986;28;20202;-81
2023/04/15 03:53:17;;;;;;;1.40;1.30;;;7.10;99.90;;;;;;5115496;28;20171;-79
2023/04/15 03:55:43;;;;;;;1.40;1.40;;;7.10;99.90;;;;;;5097047;28;20189;-79
2023/04/15 03:58:11;;;;;;;1.30;1.30;;;7.10;99.90;;;;;;5096943;28;20183;-81
2023/04/15 04:00:38;;;;;;;1.13;1.13;;;7.00;99.90;;;;;;5114919;28;20174;-83
2023/04/15 04:03:06;;;;;;;1.37;1.27;;;7.00;99.90;;;;;;5115418;28;20634;-77
2023/04/15 04:05:35;;;;;;;1.20;1.20;;;7.00;99.90;;;;;;5115247;28;20215;-77
2023/04/15 04:08:01;;;;;;;1.47;1.37;;;7.10;99.90;;;;;;5096955;28;20193;-79
2023/04/15 04:10:27;;;;;;;1.23;1.23;;;7.10;99.90;;;;;;5096343;28;20552;-80
2023/04/15 04:12:53;;;;;;;0.97;0.97;;;7.00;99.90;;;;;;5115101;28;20270;-77
2023/04/15 04:15:18;;;;;;;1.33;1.33;;;7.00;99.90;;;;;;5095088;28;20227;-77
2023/04/15 04:17:45;;;;;;;1.17;1.17;;;7.00;99.90;;;;;;5099370;28;20187;-81
2023/04/15 04:20:11;;;;;;;2.17;2.07;;;7.20;99.90;;;;;;5097573;28;20324;-77
2023/04/15 04:22:42;;;;;;;1.53;1.47;;;7.00;99.90;;;;;;5096029;28;20259;-76
2023/04/15 04:25:11;;;;;;;2.73;1.40;;;6.90;99.90;;;;;;5094623;28;20210;-78
2023/04/15 04:27:37;;;;;;;1.40;1.40;;;6.90;99.90;;;;;;5098178;28;20223;-79
2023/04/15 04:30:05;;;;;;;1.60;1.57;;;6.90;99.90;;;;;;5095249;28;20202;-77
2023/04/15 04:32:31;;;;;;;1.53;1.53;;;7.00;99.90;;;;;;5093238;28;20230;-80
2023/04/15 04:34:56;;;;;;;1.50;1.50;;;7.00;99.90;;;;;;5094347;28;20573;-81
2023/04/15 04:37:23;;;;;;;1.90;1.80;;;7.00;99.90;;;;;;5094233;28;20172;-77
2023/04/15 04:39:49;;;;;;;1.90;1.80;;;7.00;99.90;;;;;;5093940;28;20562;-76
2023/04/15 04:42:15;;;;;;;1.50;1.50;;;7.00;99.90;;;;;;5092685;28;20183;-79
2023/04/15 04:44:40;;;;;;;1.50;1.50;;;7.10;99.90;;;;;;5093971;28;20206;-85
2023/04/15 04:47:06;;;;;;;2.10;2.00;;;7.00;99.90;;;;;;5094009;28;20172;-80
2023/04/15 04:49:32;;;;;;;1.60;1.60;;;7.10;99.90;;;;;;5093653;28;20163;-76
2023/04/15 04:51:58;;;;;;;1.60;1.60;;;7.10;99.90;;;;;;5093502;28;20252;-76
2023/04/15 04:54:25;;;;;;;2.00;1.90;;;7.10;99.90;;;;;;5093743;28;20211;-75
2023/04/15 04:56:50;;;;;;;1.63;1.63;;;7.10;99.90;;;;;;5093603;28;20562;-75
2023/04/15 04:59:16;;;;;;;1.60;1.60;;;7.20;99.90;;;;;;5093456;28;20238;-78
2023/04/15 05:01:45;;;;;;;1.60;1.50;;;7.10;99.90;;;;;;5093496;28;20256;-81
2023/04/15 05:04:11;;;;;;;1.60;1.60;;;7.20;99.90;;;;;;5095079;28;20643;-81
2023/04/15 05:06:37;;;;;;;2.17;2.07;;;7.20;99.90;;;;;;5093817;28;20241;-80
2023/04/15 05:09:03;;;;;;;2.20;2.10;;;7.20;99.90;;;;;;5093253;28;20224;-79
2023/04/15 05:11:28;;;;;;;1.73;1.73;;;7.10;99.90;;;;;;5091959;28;20189;-79
2023/04/15 05:13:54;;;;;;;2.07;1.97;;;7.10;99.90;;;;;;5092138;28;20657;-77
2023/04/15 05:16:20;;;;;;;1.87;1.80;;;7.00;99.90;;;;;;5106411;28;20225;-80
2023/04/15 05:18:46;;;;;;;2.10;2.00;;;7.00;99.90;;;;;;5113374;28;20182;-78
2023/04/15 05:21:12;;;;;;;1.93;1.90;;;7.10;99.90;;;;;;5113645;28;20190;-79
2023/04/15 05:23:38;;;;;;;2.30;2.20;;;7.00;99.90;;;;;;5113300;28;20337;-76
2023/04/15 05:26:04;;;;;;;2.70;2.50;;;7.00;99.90;;;;;;5113304;28;20216;-79
2023/04/15 05:28:30;;;;;;;1.97;1.87;;;7.10;99.90;;;;;;5113226;28;20185;-76
2023/04/15 05:30:56;;;;;;;2.10;2.00;;;7.10;99.90;;;;;;5113144;28;20192;-78
2023/04/15 05:33:22;;;;;;;3.30;2.30;;;7.10;99.90;;;;;;5113051;28;20649;-83
2023/04/15 05:35:48;;;;;;;2.60;2.50;;;7.10;99.90;;;;;;5113284;28;20257;-78
2023/04/15 05:38:13;;;;;;;2.47;2.37;;;7.10;99.90;;;;;;5113232;28;20248;-77
2023/04/15 05:40:39;;;;;;;2.20;2.10;;;7.20;99.90;;;;;;5113008;28;20537;-76
2023/04/15 05:43:05;;;;;;;2.40;2.30;;;7.10;99.90;;;;;;5112945;28;20226;-82
2023/04/15 05:45:30;;;;;;;2.40;2.30;;;7.10;99.90;;;;;;5114274;28;20220;-83
2023/04/15 05:47:56;;;;;;;3.00;2.80;;;7.10;99.90;;;;;;5114379;28;20181;-81
2023/04/15 05:50:22;;;;;;;2.77;2.50;;;7.10;99.90;;;;;;5113753;28;20192;-80
2023/04/15 05:52:48;;;;;;;2.70;2.50;;;7.20;99.90;;;;;;5111791;28;20594;-80
2023/04/15 05:55:13;;;;;;;2.23;2.13;;;7.20;99.90;;;;;;5113321;28;20200;-80
2023/04/15 05:57:39;;;;;;;4.60;3.10;;;7.30;99.90;;;;;;5095061;28;20184;-79
2023/04/15 06:00:06;;;;;;;3.03;2.83;;;7.40;99.90;;;;;;5114613;28;20269;-82
2023/04/15 06:02:32;;;;;;;5.87;3.23;;;7.40;99.90;;;;;;5113900;28;20187;-79
2023/04/15 06:04:58;;;;;;;3.20;2.97;;;7.40;99.90;;;;;;5105922;27;20214;-83
2023/04/15 06:07:24;;;;;;;3.00;2.80;;;7.50;99.90;;;;;;5115910;27;20171;-78
2023/04/15 06:09:50;;;;;;;2.40;2.30;;;7.40;99.90;;;;;;5134184;27;20265;-78
2023/04/15 06:12:16;;;;;;;2.93;2.73;;;7.50;99.90;;;;;;5127747;27;20262;-80
2023/04/15 06:14:42;;;;;;;3.70;3.40;;;7.50;99.90;;;;;;5114216;28;20195;-79
2023/04/15 06:17:08;;;;;;;2.63;2.53;;;7.70;99.90;;;;;;5115827;28;20702;-79
2023/04/15 06:19:35;;;;;;;2.97;2.77;;;7.60;99.90;;;;;;5096540;28;20244;-79
2023/04/15 06:22:01;;;;;;;2.20;2.10;;;7.70;99.90;;;;;;5130878;27;20236;-82
2023/04/15 06:24:27;;;;;;;5.17;2.73;;;7.70;99.90;;;;;;5134303;27;20170;-81
2023/04/15 06:26:53;;;;;;;2.57;2.43;;;7.70;99.90;;;;;;5128582;27;20544;-79
2023/04/15 06:29:20;;;;;;;2.37;2.27;;;7.70;99.90;;;;;;5111998;28;20189;-80
2023/04/15 06:31:48;;;;;;;2.77;2.60;;;7.80;99.90;;;;;;5112673;28;20248;-82
2023/04/15 06:34:14;;;;;;;2.77;2.57;;;7.80;99.90;;;;;;5112532;28;20179;-83
2023/04/15 06:36:40;;;;;;;2.70;2.60;;;7.90;99.90;;;;;;5114275;28;20587;-80
2023/04/15 06:39:06;;;;;;;3.30;3.10;;;7.90;99.90;;;;;;5095729;28;20176;-79
2023/04/15 06:41:31;;;;;;;2.80;2.70;;;8.00;99.90;;;;;;5113530;28;20262;-81
2023/04/15 06:43:57;;;;;;;2.97;2.77;;;8.00;99.90;;;;;;5114083;28;20682;-82
2023/04/15 06:46:23;;;;;;;3.20;3.00;;;8.00;99.90;;;;;;5113393;28;20214;-80
2023/04/15 06:48:48;;;;;;;2.90;2.70;;;8.00;99.90;;;;;;5112725;28;20536;-80
2023/04/15 06:51:14;;;;;;;2.57;2.47;;;8.10;99.90;;;;;;5095251;28;20194;-83
2023/04/15 06:53:42;;;;;;;2.83;2.73;;;8.10;99.90;;;;;;5111168;28;20180;-87
2023/04/15 06:56:08;;;;;;;2.60;2.50;;;8.10;99.90;;;;;;5112639;28;20229;-83
2023/04/15 06:58:34;;;;;;;2.60;2.43;;;8.10;99.90;;;;;;5109493;28;20692;-84
2023/04/15 07:01:00;;;;;;;2.43;2.33;;;8.10;99.90;;;;;;5092736;28;20198;-83
2023/04/15 07:03:26;;;;;;;2.60;2.50;;;8.10;99.90;;;;;;5111977;28;20259;-82
2023/04/15 07:05:52;;;;;;;2.73;2.57;;;8.20;99.90;;;;;;5112652;28;20655;-87
2023/04/15 07:08:19;;;;;;;2.70;2.60;;;8.20;99.90;;;;;;5112497;28;20187;-84
2023/04/15 07:10:46;;;;;;;2.30;2.20;;;8.30;99.90;;;;;;5111948;28;20200;-84
2023/04/15 07:13:12;;;;;;;2.37;2.27;;;8.30;99.90;;;;;;5129305;28;20191;-85
2023/04/15 07:15:38;;;;;;;2.13;2.03;;;8.40;99.90;;;;;;5133000;27;20273;-80
2023/04/15 07:18:03;;;;;;;4.53;2.40;;;8.30;99.90;;;;;;5136631;27;20179;-82
2023/04/15 07:20:29;;;;;;;2.87;2.67;;;8.20;99.90;;;;;;5138445;27;20168;-87
2023/04/15 07:22:55;;;;;;;2.50;2.40;;;8.20;99.90;;;;;;5149016;27;20197;-79
2023/04/15 07:25:22;;;;;;;2.50;2.40;;;8.20;99.90;;;;;;5139005;27;20297;-79
2023/04/15 07:27:48;;;;;;;2.63;2.53;;;8.10;99.90;;;;;;5137951;27;20178;-84
2023/04/15 07:30:14;;;;;;;2.53;2.43;;;8.00;99.90;;;;;;5139327;27;20685;-78
2023/04/15 07:32:41;;;;;;;2.40;2.30;;;8.10;99.90;;;;;;5102415;28;20181;-78
2023/04/15 07:35:08;;;;;;;2.63;2.50;;;8.00;99.90;;;;;;5117165;28;20631;-76
2023/04/15 07:37:35;;;;;;;2.77;2.60;;;8.00;99.90;;;;;;5116416;28;20240;-77
2023/04/15 07:40:01;;;;;;;2.90;2.70;;;8.20;99.90;;;;;;5115224;28;20189;-77
2023/04/15 07:42:28;;;;;;;2.43;2.33;;;8.20;99.90;;;;;;5115401;28;20173;-76
2023/04/15 07:44:53;;;;;;;2.57;2.47;;;8.30;99.90;;;;;;5114982;28;20297;-76
2023/04/15 07:47:20;;;;;;;2.53;2.43;;;8.40;99.90;;;;;;5115455;28;20252;-83
2023/04/15 07:49:46;;;;;;;2.30;2.20;;;8.40;99.90;;;;;;5097400;28;20294;-77
2023/04/15 07:52:11;;;;;;;3.23;2.97;;;8.30;99.90;;;;;;5104344;28;20181;-76
2023/04/15 07:54:37;;;;;;;3.43;3.13;;;8.40;99.90;;;;;;5097959;28;20268;-80
2023/04/15 07:57:03;;;;;;;3.60;3.30;;;8.40;99.90;;;;;;5078045;28;20182;-81
2023/04/15 07:59:30;;;;;;;3.93;3.60;;;8.60;99.90;;;;;;5076686;28;20233;-84
2023/04/15 08:01:56;;;;;;;3.50;3.20;;;8.80;99.90;;;;;;5096369;28;20201;-78
2023/04/15 08:04:22;;;;;;;3.33;3.10;;;8.90;99.90;;;;;;5098637;28;20167;-80
2023/04/15 08:06:49;;;;;;;3.30;3.10;;;9.30;99.90;;;;;;5076911;28;20708;-76
2023/04/15 08:09:15;;;;;;;2.40;2.30;;;9.60;99.90;;;;;;5078638;28;20189;-80
2023/04/15 08:11:41;;;;;;;2.77;2.50;;;9.70;99.90;;;;;;5107748;27;20211;-80
2023/04/15 08:14:07;;;;;;;4.13;2.80;;;9.80;99.90;;;;;;5115845;27;20606;-77
2023/04/15 08:16:33;;;;;;;3.20;3.00;;;9.80;99.90;;;;;;5115408;28;21054;-78
2023/04/15 08:18:59;;;;;;;2.97;2.77;;;9.90;99.90;;;;;;5115266;28;20186;-79
2023/04/15 08:21:26;;;;;;;2.93;2.73;;;10.00;99.90;;;;;;5114850;28;20173;-78
2023/04/15 08:23:53;;;;;;;2.37;2.27;;;10.10;99.90;;;;;;5096225;28;20224;-77
2023/04/15 08:26:20;;;;;;;2.37;2.27;;;10.10;99.90;;;;;;5095503;28;20376;-78
2023/04/15 08:28:46;;;;;;;2.13;2.03;;;10.10;99.90;;;;;;5114202;28;20177;-78
2023/04/15 08:31:13;;;;;;;2.23;2.10;;;10.10;99.90;;;;;;5118568;28;20620;-80
2023/04/15 08:33:39;;;;;;;2.13;2.03;;;10.00;99.90;;;;;;5119212;28;20204;-76
2023/04/15 08:36:07;;;;;;;2.30;2.20;;;10.10;99.90;;;;;;5121161;28;20548;-81
2023/04/15 08:38:33;;;;;;;2.20;2.03;;;10.10;99.90;;;;;;5096062;28;20265;-78
2023/04/15 08:41:03;;;;;;;2.00;1.90;;;10.20;99.90;;;;;;5095838;28;20226;-78
2023/04/15 08:43:34;;;;;;;2.93;2.57;;;10.20;99.90;;;;;;5114663;28;20218;-78
2023/04/15 08:46:01;;;;;;;2.00;1.90;;;10.30;99.90;;;;;;5093944;28;20209;-76
2023/04/15 08:48:28;;;;;;;2.50;2.40;;;10.40;99.90;;;;;;5095958;28;20186;-79
2023/04/15 08:50:54;;;;;;;3.50;2.20;;;10.50;99.90;;;;;;5102846;28;20178;-77
2023/04/15 08:53:20;;;;;;;2.40;2.30;;;10.50;99.90;;;;;;5080879;28;20182;-79
2023/04/15 08:55:51;;;;;;;2.17;2.07;;;10.50;99.90;;;;;;5097982;28;20693;-80
2023/04/15 08:58:18;;;;;;;2.50;2.40;;;10.50;99.90;;;;;;5095478;28;20171;-77
2023/04/15 09:00:44;;;;;;;2.40;2.30;;;10.50;99.90;;;;;;5095230;28;20180;-78
2023/04/15 09:03:10;;;;;;;2.77;2.57;;;10.60;99.90;;;;;;5096370;28;20181;-78
2023/04/15 09:05:36;;;;;;;2.30;2.20;;;10.70;99.90;;;;;;5100094;28;20209;-79
2023/04/15 09:08:04;;;;;;;2.20;2.10;;;10.90;99.90;;;;;;5079570;28;20641;-79
2023/04/15 09:10:31;;;;;;;2.17;2.07;;;11.00;99.90;;;;;;5097145;28;20181;-79
2023/04/15 09:12:58;;;;;;;2.73;2.53;;;11.00;99.90;;;;;;5128879;27;20193;-77
2023/04/15 09:15:28;;;;;;;2.63;2.43;;;11.00;99.90;;;;;;5133366;27;20668;-77
2023/04/15 09:17:55;;;;;;;3.40;2.10;;;11.00;99.90;;;;;;5115413;27;20600;-80
2023/04/15 09:20:22;;;;;;;2.00;1.90;;;11.20;99.90;;;;;;5114320;27;20793;-75
2023/04/15 09:22:50;;;;;;;2.20;2.10;;;11.30;99.90;;;;;;5115195;27;20177;-77
2023/04/15 09:25:28;;;;;;;1.83;1.73;;;11.30;99.90;;;;;;5134116;27;20206;-76
2023/04/15 09:27:59;;;;;;;1.67;1.67;;;11.50;99.90;;;;;;5134121;27;20617;-78
2023/04/15 09:30:26;;;;;;;1.83;1.73;;;11.60;99.90;;;;;;5133746;27;20623;-76
2023/04/15 09:32:54;;;;;;;1.93;1.83;;;11.70;99.90;;;;;;5132847;27;20178;-76
2023/04/15 09:35:21;;;;;;;2.30;2.20;;;11.80;99.90;;;;;;5132405;27;20169;-80
2023/04/15 09:37:48;;;;;;;2.33;2.17;;;11.90;99.90;;;;;;5133171;27;20201;-77
2023/04/15 09:40:14;;;;;;;1.70;1.70;;;11.90;99.90;;;;;;5132965;27;20282;-76
2023/04/15 09:42:55;;;;;;;2.00;1.90;;;11.80;99.90;;;;;;5133745;27;20314;-77
2023/04/15 09:45:22;;;;;;;2.47;2.27;;;11.90;99.90;;;;;;5133584;27;20210;-77
2023/04/15 09:47:49;;;;;;;2.20;2.10;;;12.00;99.90;;;;;;5133462;27;20244;-78
2023/04/15 09:50:16;;;;;;;2.30;2.20;;;12.20;99.90;;;;;;5133532;27;20204;-77
2023/04/15 09:52:42;;;;;;;2.00;1.90;;;12.30;99.90;;;;;;5133992;27;20179;-79
2023/04/15 09:55:09;;;;;;;2.57;2.37;;;12.30;99.90;;;;;;5133787;27;20183;-79
2023/04/15 09:58:58;;;;;;;2.27;2.17;;;12.30;99.90;;;;;;5110035;27;20281;-84
2023/04/15 10:01:24;;;;;;;2.27;2.17;;;12.30;99.90;;;;;;5108728;28;20196;-77
2023/04/15 10:03:51;;;;;;;2.10;2.00;;;12.30;99.90;;;;;;5107838;28;20234;-78
2023/04/15 10:06:17;;;;;;;2.20;2.00;;;12.30;99.90;;;;;;5091488;28;20188;-80
2023/04/15 10:08:43;;;;;;;3.10;2.80;;;12.40;99.90;;;;;;5109205;28;20592;-77
2023/04/15 10:11:09;;;;;;;2.20;2.10;;;12.50;99.90;;;;;;5114924;28;20174;-74
2023/04/15 10:13:36;;;;;;;2.00;1.90;;;12.60;99.90;;;;;;5130283;28;20239;-78
2023/04/15 10:16:09;;;;;;;2.43;2.23;;;12.60;99.90;;;;;;5130144;28;20581;-77
2023/04/15 10:18:39;;;;;;;2.03;1.93;;;12.80;99.90;;;;;;5129960;28;20193;-75
2023/04/15 10:21:07;;;;;;;3.07;1.70;;;12.80;99.90;;;;;;5129591;28;20252;-76
2023/04/15 10:23:33;;;;;;;1.83;1.83;;;12.70;99.90;;;;;;5130323;28;20267;-74
2023/04/15 10:25:59;;;;;;;1.70;1.60;;;12.70;99.90;;;;;;5118701;28;20186;-76
2023/04/15 10:28:26;;;;;;;2.27;2.17;;;12.80;99.90;;;;;;5112134;28;20167;-76
2023/04/15 10:30:52;;;;;;;1.97;1.87;;;12.70;99.90;;;;;;5107948;28;20549;-77
2023/04/15 10:33:21;;;;;;;1.90;1.80;;;12.70;99.90;;;;;;5096525;28;20642;-78
2023/04/15 10:35:50;;;;;;;2.17;2.07;;;12.60;99.90;;;;;;5094214;28;20197;-75
2023/04/15 10:38:40;;;;;;;1.67;1.67;;;12.60;99.90;;;;;;5093722;28;20213;-79
2023/04/15 10:41:24;;;;;;;1.80;1.70;;;12.70;99.90;;;;;;5108636;28;20319;-78
2023/04/15 10:43:52;;;;;;;1.80;1.80;;;12.70;99.90;;;;;;5110127;28;20199;-78
2023/04/15 10:46:23;;;;;;;2.20;2.10;;;12.70;99.90;;;;;;5109465;28;20209;-78
2023/04/15 10:48:51;;;;;;;1.87;1.80;;;12.60;99.90;;;;;;5108978;28;20162;-79
2023/04/15 10:51:27;;;;;;;2.00;2.00;;;12.50;99.90;;;;;;5108804;28;20170;-77
2023/04/15 10:53:57;;;;;;;2.00;1.70;;;12.40;99.90;;;;;;5109199;28;20162;-78
2023/04/15 10:56:23;;;;;;;2.00;1.90;;;12.40;99.90;;;;;;5109540;28;20257;-77
2023/04/15 10:58:49;;;;;;;2.07;1.97;;;12.40;99.90;;;;;;5108806;28;20348;-74
2023/04/15 11:01:14;;;;;;;2.73;2.07;;;12.40;99.90;;;;;;5109272;28;20202;-75
2023/04/15 11:03:42;;;;;;;2.10;2.00;;;12.50;99.90;;;;;;5109192;28;20179;-75
2023/04/15 11:06:08;;;;;;;1.97;1.87;;;12.40;99.90;;;;;;5109071;28;20669;-76
2023/04/15 11:08:54;;;;;;;1.80;1.70;;;12.40;99.90;;;;;;5104944;28;20312;-76
2023/04/15 11:11:20;;;;;;;1.80;1.70;;;12.30;99.90;;;;;;5096727;28;20184;-76
2023/04/15 11:13:51;;;;;;;1.83;1.73;;;12.30;99.90;;;;;;5115575;28;20236;-78
2023/04/15 11:16:17;;;;;;;2.30;2.10;;;12.40;99.90;;;;;;5115666;28;20262;-76
2023/04/15 11:18:54;;;;;;;3.07;2.00;;;12.50;99.90;;;;;;5115130;28;20214;-74
2023/04/15 11:21:25;;;;;;;2.33;2.13;;;12.60;99.90;;;;;;5116064;28;20175;-77
2023/04/15 11:23:50;;;;;;;2.20;2.10;;;12.80;99.90;;;;;;5115903;28;20202;-77
2023/04/15 11:26:16;;;;;;;1.80;1.80;;;12.90;99.90;;;;;;5115618;28;20539;-77
2023/04/15 11:28:43;;;;;;;2.30;2.20;;;13.00;99.90;;;;;;5118472;28;20174;-76
2023/04/15 11:31:12;;;;;;;2.07;1.97;;;13.10;99.90;;;;;;5123089;28;20166;-77
2023/04/15 11:33:57;;;;;;;1.70;1.70;;;13.20;99.90;;;;;;5115578;28;20585;-77
2023/04/15 11:36:26;;;;;;;2.60;2.40;;;13.10;99.90;;;;;;5115243;28;20163;-78
2023/04/15 11:38:56;;;;;;;2.00;1.90;;;13.00;99.90;;;;;;5114679;28;20623;-81
2023/04/15 11:41:22;;;;;;;2.00;1.90;;;13.10;99.90;;;;;;5115037;28;20166;-79
2023/04/15 11:43:49;;;;;;;2.13;1.93;;;13.20;99.90;;;;;;5113850;28;20181;-76
2023/04/15 11:46:15;;;;;;;1.87;1.83;;;13.30;99.90;;;;;;5114979;28;20174;-77
2023/04/15 11:48:46;;;;;;;1.90;1.80;;;13.40;99.90;;;;;;5114816;28;20181;-76
2023/04/15 11:51:13;;;;;;;2.67;2.40;;;13.40;99.90;;;;;;5114890;28;20685;-78
2023/04/15 11:53:45;;;;;;;2.40;2.20;;;13.50;99.90;;;;;;5114777;28;20170;-78
2023/04/15 11:56:23;;;;;;;2.27;2.17;;;13.50;99.90;;;;;;5114716;28;20197;-77
2023/04/15 11:58:55;;;;;;;1.80;1.70;;;13.50;99.90;;;;;;5114321;28;20230;-78
2023/04/15 12:01:48;;;;;;;1.80;1.70;;;13.40;99.90;;;;;;5115418;28;20173;-76
2023/04/15 12:04:21;;;;;;;2.07;1.97;;;13.30;99.90;;;;;;5114598;28;20184;-79
2023/04/15 12:06:46;;;;;;;1.77;1.67;;;13.10;99.90;;;;;;5094662;28;20190;-78
2023/04/15 12:09:14;;;;;;;2.10;2.00;;;13.10;99.90;;;;;;5095403;28;20185;-81
2023/04/15 12:11:56;;;;;;;2.30;2.20;;;13.00;99.90;;;;;;5099606;28;20689;-79
2023/04/15 12:14:30;;;;;;;1.93;1.83;;;13.10;99.90;;;;;;5113514;28;20173;-76
2023/04/15 12:17:04;;;;;;;2.00;1.90;;;13.10;99.90;;;;;;5113236;28;20304;-77
2023/04/15 12:19:33;;;;;;;2.63;1.97;;;13.20;99.90;;;;;;5121646;28;20193;-78
2023/04/15 12:22:03;;;;;;;1.70;1.60;;;13.30;99.90;;;;;;5116750;28;20162;-79
2023/04/15 12:24:34;;;;;;;2.80;2.07;;;13.50;99.90;;;;;;5116278;28;20185;-78
2023/04/15 12:27:07;;;;;;;1.73;1.63;;;13.50;99.90;;;;;;5114744;28;20170;-77
2023/04/15 12:29:34;;;;;;;2.07;1.97;;;13.60;99.90;;;;;;5112466;28;20178;-76
2023/04/15 12:32:11;;;;;;;1.60;1.60;;;13.70;99.90;;;;;;5113807;28;20633;-78
2023/04/15 12:34:36;;;;;;;1.80;1.77;;;13.80;99.90;;;;;;5114113;28;20165;-77
2023/04/15 12:37:05;;;;;;;2.30;2.20;;;14.00;99.90;;;;;;5115502;28;20876;-78
2023/04/15 12:39:34;;;;;;;1.63;1.60;;;14.00;99.90;;;;;;5115107;28;20222;-77
2023/04/15 12:42:00;;;;;;;2.20;1.70;;;13.90;99.90;;;;;;5113967;28;20522;-77
2023/04/15 12:44:26;;;;;;;1.50;1.50;;;13.90;99.90;;;;;;5113726;28;20656;-76
2023/04/15 12:46:53;;;;;;;1.63;1.60;;;13.80;99.90;;;;;;5113883;28;20166;-75
2023/04/15 12:49:23;;;;;;;1.50;1.50;;;13.70;99.90;;;;;;5120193;28;20174;-77
2023/04/15 12:51:53;;;;;;;3.60;2.97;;;13.60;99.90;;;;;;5115621;28;20170;-77
2023/04/15 12:54:19;;;;;;;1.97;1.87;;;13.50;99.90;;;;;;5113580;28;20174;-77